Main page
METAR-TAF:

METAR-TAF

Airports :

Uberaba Airport

Uberaba, Minas Gerais, Brazil

latitude: 19-47S, longitude: 047-58W, elevation: 807 m

Current weather observation

The report was made 34 minutes ago, at 07:00 UTC
Wind 4 kt from the Northeast
Temperature 18°C
Humidity 83%
Pressure 1016 hPa
Visibility 10 km or more
no clouds below 1500 m and no cumulonimbus

METAR: SBUR 190700Z 04004KT CAVOK 18/15 Q1016

Time: 04:34 (07:34 UTC)

Forecast

The report was made 5 hours and 25 minutes ago, at 02:09 UTC
Forecast valid from 19 at 06 UTC to 19 at 18 UTC
Wind 5 kt from the Northeast
Visibility 10 km or more
no clouds below 1500 m and no cumulonimbus
Becoming
from 19 at 13 UTC to 19 at 15 UTC
Wind 10 kt from the West/Southwest
Scattered clouds at a height of 4500 ft

TAF: SBUR 190209Z 1906/1918 05005KT CAVOK TN18/1909Z TX28/1917Z BECMG 1913/1915 24010KT SCT045 RMK PGN

Weather observations and forecasts of more than 4000 airports (METAR and TAF reports).

The available stations are represented by yellow and red dots on the map.

Hover mouse over dot to see the name of the station.

Then click to see weather observations and forecasts.

To change the map : click on the green buttons with a black cross to zoom in, on the green button with a dash to zoom out, or on the green arrows for adjacent maps.


METAR-TAF: